createdAt,value
2022-10-17T00:01:59.748Z,0.50
2022-10-17T00:07:01.748Z,0.40
2022-10-17T00:12:04.793Z,0.52
2022-10-17T00:17:06.752Z,0.50
2022-10-17T00:22:08.573Z,0.50
2022-10-17T00:27:10.562Z,0.40
2022-10-17T00:32:12.793Z,0.35
2022-10-17T00:37:14.847Z,0.50
2022-10-17T00:42:16.764Z,0.40
2022-10-17T00:47:22.862Z,0.45
2022-10-17T00:52:28.348Z,0.40
2022-10-17T00:57:32.101Z,0.40
2022-10-17T01:02:33.990Z,0.30
2022-10-17T01:07:37.504Z,0.40
2022-10-17T01:12:53.215Z,0.32
2022-10-17T01:18:13.946Z,0.40
2022-10-17T01:23:28.631Z,0.40
2022-10-17T01:29:04.098Z,0.47
2022-10-17T01:34:31.177Z,0.47
2022-10-17T01:39:48.713Z,0.50
2022-10-17T01:44:50.930Z,0.47
2022-10-17T01:49:55.167Z,0.40
2022-10-17T01:55:33.996Z,0.40
2022-10-17T02:00:38.223Z,0.30
2022-10-17T02:05:42.928Z,0.38
2022-10-17T02:11:11.359Z,0.57
2022-10-17T02:16:41.399Z,0.28
2022-10-17T02:22:08.783Z,0.40
2022-10-17T02:27:26.661Z,0.30
2022-10-17T02:32:40.538Z,0.70
2022-10-17T02:37:45.978Z,0.30
2022-10-17T02:42:50.077Z,0.50
2022-10-17T02:47:59.582Z,0.40
2022-10-17T02:53:20.358Z,0.43
2022-10-17T02:58:29.251Z,0.52
2022-10-17T03:03:32.399Z,0.60
2022-10-17T03:08:34.247Z,0.30
2022-10-17T03:13:39.087Z,0.40
2022-10-17T03:18:44.348Z,0.55
2022-10-17T03:23:48.541Z,0.40
2022-10-17T03:28:53.510Z,0.30
2022-10-17T03:33:56.411Z,0.50
2022-10-17T03:38:58.248Z,0.20
2022-10-17T03:43:59.970Z,0.32
2022-10-17T03:49:02.123Z,0.43
2022-10-17T03:54:04.306Z,0.50
2022-10-17T03:59:06.043Z,0.32
2022-10-17T04:04:08.094Z,0.30
2022-10-17T04:09:10.853Z,0.40
2022-10-17T04:14:12.694Z,0.57
2022-10-17T04:19:14.812Z,0.40
2022-10-17T04:24:16.925Z,0.30
2022-10-17T04:29:18.867Z,0.55
2022-10-17T04:34:20.692Z,0.60
2022-10-17T04:39:22.550Z,0.40
2022-10-17T04:44:24.435Z,0.30
2022-10-17T04:49:26.102Z,0.40
2022-10-17T04:54:27.838Z,0.40
2022-10-17T04:59:29.863Z,0.77
2022-10-17T05:04:31.505Z,0.50
2022-10-17T05:09:33.281Z,0.47
2022-10-17T05:14:34.960Z,0.40
2022-10-17T05:19:36.640Z,0.30
2022-10-17T05:24:39.033Z,0.40
2022-10-17T05:29:40.836Z,0.60
2022-10-17T05:34:42.690Z,0.50
2022-10-17T05:39:49.164Z,0.70
2022-10-17T05:44:53.426Z,0.47
2022-10-17T05:49:55.318Z,0.40
2022-10-17T05:54:57.094Z,0.40
2022-10-17T05:59:59.209Z,0.30
2022-10-17T06:05:01.058Z,0.60
2022-10-17T06:10:02.895Z,0.57
2022-10-17T06:15:05.035Z,0.47
2022-10-17T06:20:07.569Z,0.70
2022-10-17T06:25:10.265Z,0.50
2022-10-17T06:30:12.198Z,0.52
2022-10-17T06:35:14.134Z,0.52
2022-10-17T06:40:17.295Z,0.50
2022-10-17T06:45:19.241Z,0.40
2022-10-17T06:50:21.058Z,0.57
2022-10-17T06:55:23.441Z,0.32
2022-10-17T07:00:26.958Z,0.60
2022-10-17T07:05:28.673Z,0.60
2022-10-17T07:10:30.575Z,0.55
2022-10-17T07:15:32.904Z,0.75
2022-10-17T07:20:34.777Z,0.50
2022-10-17T07:25:40.070Z,0.63
2022-10-17T07:30:42.788Z,0.20
2022-10-17T07:35:44.590Z,0.50
2022-10-17T07:40:46.409Z,0.65
2022-10-17T07:45:48.445Z,0.80
2022-10-17T07:50:50.669Z,0.63
2022-10-17T07:55:52.478Z,0.70
2022-10-17T08:00:54.395Z,0.73
2022-10-17T08:06:00.986Z,0.60
2022-10-17T08:11:08.018Z,0.93
2022-10-17T08:16:12.188Z,0.70
2022-10-17T08:21:14.071Z,0.57
2022-10-17T08:26:17.488Z,0.98
2022-10-17T08:31:20.300Z,0.77
2022-10-17T08:36:22.544Z,0.80
2022-10-17T08:42:08.585Z,0.75
2022-10-17T08:47:16.777Z,1.15
2022-10-17T08:52:49.326Z,0.60
2022-10-17T08:57:51.254Z,0.95
2022-10-17T09:03:19.998Z,0.60
2022-10-17T09:08:48.299Z,0.70
2022-10-17T09:14:25.233Z,0.73
2022-10-17T09:19:37.718Z,1.00
2022-10-17T09:24:51.509Z,0.63
2022-10-17T09:30:21.471Z,0.80
2022-10-17T09:35:30.357Z,1.25
2022-10-17T09:40:35.256Z,1.30
2022-10-17T09:45:44.487Z,1.13
2022-10-17T09:50:53.843Z,1.23
2022-10-17T09:56:11.125Z,1.20
2022-10-17T10:01:24.088Z,1.65
2022-10-17T10:06:26.536Z,1.38
2022-10-17T10:11:53.319Z,1.90
2022-10-17T10:16:56.174Z,1.58
2022-10-17T10:21:58.901Z,1.45
2022-10-17T10:27:04.606Z,1.80
2022-10-17T10:32:12.236Z,1.60
2022-10-17T10:37:20.794Z,1.85
2022-10-17T10:42:37.827Z,1.50
2022-10-17T10:47:39.705Z,1.73
2022-10-17T10:53:10.387Z,1.83
2022-10-17T10:58:27.966Z,1.63
2022-10-17T11:03:36.415Z,1.42
2022-10-17T11:08:48.782Z,1.58
2022-10-17T11:13:58.561Z,1.77
2022-10-17T11:19:12.611Z,1.40
2022-10-17T11:24:17.400Z,1.90
2022-10-17T11:29:19.293Z,1.98
2022-10-17T11:34:26.315Z,1.50
2022-10-17T11:39:30.970Z,2.05
2022-10-17T11:44:38.557Z,2.58
2022-10-17T11:49:51.357Z,1.88
2022-10-17T11:55:00.087Z,2.00
2022-10-17T12:00:40.838Z,1.65
2022-10-17T12:06:32.622Z,1.80
2022-10-17T12:11:42.326Z,1.83
2022-10-17T12:16:45.329Z,1.77
2022-10-17T12:22:01.200Z,2.10
2022-10-17T12:27:36.331Z,1.10
2022-10-17T12:33:04.331Z,1.38
2022-10-17T12:38:33.865Z,1.70
2022-10-17T12:43:40.550Z,1.80
2022-10-17T12:48:58.942Z,1.38
2022-10-17T12:54:13.829Z,1.23
2022-10-17T12:59:27.981Z,1.42
2022-10-17T13:04:31.729Z,1.08
2022-10-17T13:09:38.918Z,1.13
2022-10-17T13:14:43.206Z,1.42
2022-10-17T13:19:46.492Z,0.90
2022-10-17T13:24:49.776Z,0.80
2022-10-17T13:29:51.790Z,1.60
2022-10-17T13:35:10.291Z,1.40
2022-10-17T13:40:49.162Z,1.13
2022-10-17T13:46:13.697Z,1.20
2022-10-17T13:51:24.456Z,0.93
2022-10-17T13:56:29.497Z,1.20
2022-10-17T14:01:32.523Z,1.42
2022-10-17T14:06:35.057Z,1.60
2022-10-17T14:11:42.903Z,2.15
2022-10-17T14:16:45.232Z,1.30
2022-10-17T14:21:49.658Z,1.35
2022-10-17T14:26:59.005Z,1.40
2022-10-17T14:32:05.168Z,1.27
2022-10-17T14:37:18.787Z,1.55
2022-10-17T14:42:22.515Z,1.40
2022-10-17T14:47:43.206Z,1.15
2022-10-17T14:53:00.847Z,1.00
2022-10-17T14:58:15.717Z,1.35
2022-10-17T15:03:19.658Z,1.38
2022-10-17T15:08:24.148Z,1.20
2022-10-17T15:13:28.022Z,1.25
2022-10-17T15:18:32.761Z,1.10
2022-10-17T15:23:34.624Z,1.23
2022-10-17T15:28:36.354Z,1.33
2022-10-17T15:33:38.278Z,1.17
2022-10-17T15:38:40.182Z,1.00
2022-10-17T15:43:42.003Z,0.98
2022-10-17T15:48:44.238Z,1.13
2022-10-17T15:53:46.592Z,1.27
2022-10-17T15:58:49.014Z,1.00
2022-10-17T16:03:51.984Z,1.40
2022-10-17T16:08:53.826Z,1.13
2022-10-17T16:13:58.684Z,1.65
2022-10-17T16:19:02.344Z,0.98
2022-10-17T16:24:05.433Z,1.00
2022-10-17T16:29:08.054Z,0.88
2022-10-17T16:34:13.510Z,0.73
2022-10-17T16:39:15.577Z,1.10
2022-10-17T16:44:18.229Z,1.23
2022-10-17T16:49:20.315Z,0.70
2022-10-17T16:54:22.207Z,0.90
2022-10-17T16:59:24.841Z,1.00
2022-10-17T17:04:26.912Z,1.00
2022-10-17T17:09:28.851Z,0.93
2022-10-17T17:14:30.659Z,0.80
2022-10-17T17:19:32.581Z,1.40
2022-10-17T17:24:34.447Z,0.55
2022-10-17T17:29:36.261Z,1.00
2022-10-17T17:34:38.376Z,0.88
2022-10-17T17:39:40.907Z,0.65
2022-10-17T17:44:43.014Z,0.70
2022-10-17T17:49:44.832Z,0.65
2022-10-17T17:54:46.845Z,0.73
2022-10-17T17:59:50.034Z,0.90
2022-10-17T18:04:51.970Z,0.68
2022-10-17T18:09:54.123Z,1.40
2022-10-17T18:14:56.263Z,0.80
2022-10-17T18:19:58.030Z,0.70
2022-10-17T18:24:59.862Z,0.75
2022-10-17T18:30:02.057Z,0.80
2022-10-17T18:35:03.990Z,0.90
2022-10-17T18:40:06.299Z,0.63
2022-10-17T18:45:08.844Z,0.65
2022-10-17T18:50:10.558Z,0.85
2022-10-17T18:55:12.300Z,0.90
2022-10-17T19:00:14.416Z,0.70
2022-10-17T19:05:16.212Z,0.55
2022-10-17T19:10:18.010Z,0.50
2022-10-17T19:15:22.454Z,0.30
2022-10-17T19:20:27.587Z,0.52
2022-10-17T19:25:30.734Z,0.60
2022-10-17T19:30:32.509Z,0.93
2022-10-17T19:35:35.283Z,0.60
2022-10-17T19:40:41.205Z,0.70
2022-10-17T19:45:43.746Z,0.60
2022-10-17T19:50:45.762Z,0.75
2022-10-17T19:55:47.690Z,0.45
2022-10-17T20:00:51.862Z,0.75
2022-10-17T20:05:53.791Z,0.55
2022-10-17T20:10:55.658Z,0.43
2022-10-17T20:15:59.073Z,0.40
2022-10-17T20:21:09.937Z,0.40
2022-10-17T20:31:44.115Z,0.70
2022-10-17T20:36:46.870Z,0.40
2022-10-17T20:41:48.978Z,0.55
2022-10-17T20:47:01.288Z,0.50
2022-10-17T20:52:04.208Z,0.93
2022-10-17T20:57:06.214Z,0.50
2022-10-17T21:02:12.334Z,0.93
2022-10-17T21:07:14.394Z,0.80
2022-10-17T21:12:25.876Z,0.63
2022-10-17T21:17:38.548Z,0.70
2022-10-17T21:22:40.349Z,0.57
2022-10-17T21:27:42.096Z,0.80
2022-10-17T21:32:51.963Z,0.35
2022-10-17T21:37:53.987Z,0.50
2022-10-17T21:42:55.983Z,0.93
2022-10-17T21:48:13.578Z,0.82
2022-10-17T21:53:15.567Z,1.05
2022-10-17T21:58:21.069Z,0.80
2022-10-17T22:03:22.986Z,0.82
2022-10-17T22:08:26.059Z,1.15
2022-10-17T22:13:27.953Z,0.60
2022-10-17T22:18:30.162Z,0.50
2022-10-17T22:23:32.175Z,0.45
2022-10-17T22:28:34.573Z,0.80
2022-10-17T22:33:38.476Z,1.02
2022-10-17T22:38:40.481Z,0.80
2022-10-17T22:43:42.496Z,0.50
2022-10-17T22:48:44.570Z,0.50
2022-10-17T22:53:46.360Z,0.60
2022-10-17T22:58:48.310Z,0.50
2022-10-17T23:03:51.429Z,0.85
2022-10-17T23:08:53.268Z,0.50
2022-10-17T23:13:55.062Z,0.50
2022-10-17T23:18:58.211Z,0.60
2022-10-17T23:23:59.990Z,0.60
2022-10-17T23:29:01.971Z,0.60
2022-10-17T23:34:03.851Z,0.30
2022-10-17T23:39:06.989Z,0.40
2022-10-17T23:44:10.354Z,0.85
2022-10-17T23:49:12.308Z,1.10
2022-10-17T23:54:14.167Z,0.80
2022-10-17T23:59:15.949Z,0.43
